createdAt,value
2022-11-07T00:03:35.159Z,2.42
2022-11-07T00:09:06.372Z,2.75
2022-11-07T00:14:37.694Z,2.45
2022-11-07T00:20:09.891Z,2.85
2022-11-07T00:25:41.353Z,2.70
2022-11-07T00:31:14.176Z,2.60
2022-11-07T00:36:45.687Z,2.90
2022-11-07T00:42:17.051Z,2.95
2022-11-07T00:47:48.077Z,3.22
2022-11-07T00:53:19.590Z,3.13
2022-11-07T00:58:57.969Z,2.95
2022-11-07T01:04:48.100Z,2.85
2022-11-07T01:10:19.444Z,3.08
2022-11-07T01:15:50.824Z,2.90
2022-11-07T01:21:22.775Z,3.95
2022-11-07T01:26:53.933Z,3.88
2022-11-07T01:32:24.878Z,4.53
2022-11-07T01:37:56.283Z,3.70
2022-11-07T01:43:42.538Z,4.20
2022-11-07T01:49:21.253Z,4.30
2022-11-07T01:55:09.137Z,3.60
2022-11-07T02:00:40.657Z,4.03
2022-11-07T02:06:19.510Z,4.28
2022-11-07T02:11:50.926Z,3.97
2022-11-07T02:17:22.245Z,3.78
2022-11-07T02:23:18.073Z,4.07
2022-11-07T02:28:49.773Z,3.83
2022-11-07T02:34:21.147Z,3.90
2022-11-07T02:39:52.216Z,3.85
2022-11-07T02:45:28.399Z,3.65
2022-11-07T02:51:00.077Z,4.10
2022-11-07T02:56:31.423Z,4.05
2022-11-07T03:02:02.597Z,3.45
2022-11-07T03:07:33.961Z,3.22
2022-11-07T03:13:04.998Z,4.00
2022-11-07T03:18:36.851Z,3.42
2022-11-07T03:24:08.237Z,3.85
2022-11-07T03:29:39.592Z,3.60
2022-11-07T03:35:11.475Z,3.83
2022-11-07T03:40:42.492Z,3.78
2022-11-07T03:46:14.815Z,3.58
2022-11-07T03:51:45.656Z,3.03
2022-11-07T03:57:16.613Z,3.22
2022-11-07T04:02:48.284Z,3.08
2022-11-07T04:08:19.625Z,3.17
2022-11-07T04:14:09.455Z,3.92
2022-11-07T04:19:40.746Z,3.15
2022-11-07T04:25:12.408Z,3.63
2022-11-07T04:30:44.216Z,3.42
2022-11-07T04:36:15.567Z,2.97
2022-11-07T04:41:46.907Z,3.60
2022-11-07T04:47:17.861Z,3.03
2022-11-07T04:52:49.033Z,3.05
2022-11-07T04:58:20.543Z,2.72
2022-11-07T05:03:51.877Z,2.53
2022-11-07T05:09:23.015Z,3.90
2022-11-07T05:14:55.004Z,3.05
2022-11-07T05:20:29.097Z,3.15
2022-11-07T05:26:00.118Z,3.20
2022-11-07T05:31:31.779Z,2.33
2022-11-07T05:37:02.888Z,2.63
2022-11-07T05:42:34.327Z,2.72
2022-11-07T05:48:07.770Z,3.10
2022-11-07T05:53:38.672Z,2.57
2022-11-07T05:59:10.485Z,2.60
2022-11-07T06:04:41.616Z,2.47
2022-11-07T06:10:12.835Z,2.55
2022-11-07T06:15:45.416Z,2.10
2022-11-07T06:21:17.241Z,2.30
2022-11-07T06:26:48.231Z,2.38
2022-11-07T06:32:19.358Z,2.30
2022-11-07T06:37:50.603Z,2.10
2022-11-07T06:43:21.827Z,2.25
2022-11-07T06:48:52.932Z,2.10
2022-11-07T06:54:24.478Z,2.53
2022-11-07T06:59:55.985Z,2.50
2022-11-07T07:05:27.615Z,2.15
2022-11-07T07:11:03.177Z,2.05
2022-11-07T07:16:34.392Z,2.10
2022-11-07T07:22:05.406Z,3.08
2022-11-07T07:27:36.355Z,2.42
2022-11-07T07:33:07.402Z,2.22
2022-11-07T07:38:39.311Z,2.22
2022-11-07T07:44:10.910Z,2.33
2022-11-07T07:49:42.426Z,2.88
2022-11-07T07:55:13.600Z,2.60
2022-11-07T08:00:45.021Z,2.97
2022-11-07T08:06:16.606Z,2.78
2022-11-07T08:11:47.913Z,2.63
2022-11-07T08:17:18.943Z,2.78
2022-11-07T08:22:50.517Z,2.80
2022-11-07T08:28:23.518Z,2.85
2022-11-07T08:33:58.803Z,2.90
2022-11-07T08:39:30.158Z,2.70
2022-11-07T08:45:01.539Z,2.80
2022-11-07T08:50:32.670Z,2.60
2022-11-07T08:56:10.540Z,2.33
2022-11-07T09:02:15.210Z,2.33
2022-11-07T09:07:32.768Z,2.22
2022-11-07T09:13:03.877Z,2.30
2022-11-07T09:18:35.027Z,2.53
2022-11-07T09:24:08.238Z,2.03
2022-11-07T09:29:40.521Z,3.45
2022-11-07T09:35:11.665Z,1.85
2022-11-07T09:40:54.466Z,1.85
2022-11-07T09:46:40.495Z,2.03
2022-11-07T09:52:36.126Z,2.10
2022-11-07T09:58:26.661Z,1.83
2022-11-07T10:04:23.574Z,1.45
2022-11-07T10:10:03.746Z,1.60
2022-11-07T10:16:07.341Z,1.30
2022-11-07T10:21:49.645Z,1.52
2022-11-07T10:27:21.406Z,1.50
2022-11-07T10:33:13.904Z,2.08
2022-11-07T10:38:45.328Z,1.50
2022-11-07T10:44:25.364Z,1.40
2022-11-07T10:50:01.351Z,1.30
2022-11-07T10:55:43.155Z,1.55
2022-11-07T11:01:14.399Z,1.20
2022-11-07T11:06:45.594Z,1.10
2022-11-07T11:12:17.282Z,1.23
2022-11-07T11:18:06.881Z,1.15
2022-11-07T11:23:42.806Z,1.10
2022-11-07T11:29:24.460Z,1.35
2022-11-07T11:35:42.126Z,1.10
2022-11-07T11:41:29.663Z,1.40
2022-11-07T11:47:29.142Z,1.20
2022-11-07T11:53:05.984Z,1.35
2022-11-07T11:59:06.076Z,1.20
2022-11-07T12:05:15.612Z,1.10
2022-11-07T12:10:46.457Z,1.20
2022-11-07T12:16:29.728Z,1.00
2022-11-07T12:22:51.970Z,1.08
2022-11-07T12:28:55.099Z,1.25
2022-11-07T12:34:55.152Z,1.13
2022-11-07T12:40:28.779Z,1.10
2022-11-07T12:46:32.444Z,1.02
2022-11-07T12:52:22.592Z,1.08
2022-11-07T12:57:55.571Z,1.02
2022-11-07T13:03:34.068Z,0.90
2022-11-07T13:09:08.743Z,1.05
2022-11-07T13:14:43.746Z,0.80
2022-11-07T13:20:20.968Z,1.00
2022-11-07T13:26:03.979Z,1.00
2022-11-07T13:31:40.770Z,0.93
2022-11-07T13:42:59.649Z,1.02
2022-11-07T13:48:42.455Z,1.10
2022-11-07T13:54:32.770Z,1.20
2022-11-07T14:00:14.516Z,1.23
2022-11-07T14:05:48.450Z,1.20
2022-11-07T14:11:22.067Z,1.08
2022-11-07T14:16:57.604Z,1.10
2022-11-07T14:22:31.635Z,0.90
2022-11-07T14:28:07.179Z,0.95
2022-11-07T14:33:38.688Z,1.00
2022-11-07T14:39:15.696Z,0.95
2022-11-07T14:44:56.234Z,0.95
2022-11-07T14:50:28.574Z,1.20
2022-11-07T14:56:04.245Z,0.93
2022-11-07T15:01:35.618Z,1.08
2022-11-07T15:07:27.953Z,1.20
2022-11-07T15:13:04.886Z,1.25
2022-11-07T15:18:41.572Z,1.00
2022-11-07T15:24:34.431Z,1.30
2022-11-07T15:30:06.587Z,0.90
2022-11-07T15:35:44.450Z,1.23
2022-11-07T15:41:16.861Z,1.20
2022-11-07T15:46:48.034Z,1.10
2022-11-07T15:52:19.133Z,1.10
2022-11-07T15:57:52.266Z,1.20
2022-11-07T16:03:25.649Z,1.10
2022-11-07T16:08:57.308Z,1.50
2022-11-07T16:14:44.789Z,1.30
2022-11-07T16:20:21.545Z,1.30
2022-11-07T16:25:52.730Z,1.42
2022-11-07T16:31:24.449Z,1.35
2022-11-07T16:36:55.845Z,1.40
2022-11-07T16:42:27.552Z,1.52
2022-11-07T16:48:02.523Z,1.23
2022-11-07T16:53:33.933Z,1.25
2022-11-07T16:59:06.727Z,1.23
2022-11-07T17:04:38.029Z,1.25
2022-11-07T17:10:14.786Z,1.35
2022-11-07T17:15:46.280Z,1.38
2022-11-07T17:21:27.520Z,1.48
2022-11-07T17:26:59.357Z,1.20
2022-11-07T17:32:30.406Z,1.00
2022-11-07T17:38:01.419Z,1.23
2022-11-07T17:43:32.405Z,1.10
2022-11-07T17:49:09.377Z,1.27
2022-11-07T17:54:40.344Z,1.30
2022-11-07T18:00:17.361Z,1.45
2022-11-07T18:05:49.491Z,1.83
2022-11-07T18:11:21.848Z,1.50
2022-11-07T18:16:52.828Z,1.67
2022-11-07T18:22:23.875Z,1.52
2022-11-07T18:27:55.069Z,1.58
2022-11-07T18:33:25.948Z,1.50
2022-11-07T18:39:05.352Z,1.58
2022-11-07T18:44:36.701Z,1.42
2022-11-07T18:50:08.154Z,1.63
2022-11-07T18:55:39.366Z,2.08
2022-11-07T19:01:16.066Z,1.92
2022-11-07T19:06:57.358Z,2.00
2022-11-07T19:12:29.832Z,2.00
2022-11-07T19:18:01.728Z,1.55
2022-11-07T19:23:36.736Z,1.85
2022-11-07T19:29:11.614Z,1.73
2022-11-07T19:34:42.822Z,2.10
2022-11-07T19:40:14.387Z,2.17
2022-11-07T19:45:45.892Z,2.08
2022-11-07T19:51:22.180Z,2.50
2022-11-07T19:56:57.418Z,2.33
2022-11-07T20:02:34.698Z,1.92
2022-11-07T20:08:07.090Z,2.72
2022-11-07T20:13:38.259Z,2.45
2022-11-07T20:19:11.626Z,2.60
2022-11-07T20:24:42.674Z,2.30
2022-11-07T20:30:14.372Z,2.78
2022-11-07T20:35:45.395Z,2.80
2022-11-07T20:41:16.791Z,2.63
2022-11-07T20:46:48.477Z,2.88
2022-11-07T20:52:19.437Z,2.78
2022-11-07T20:57:50.464Z,2.72
2022-11-07T21:03:21.556Z,2.90
2022-11-07T21:08:53.157Z,2.60
2022-11-07T21:14:24.744Z,3.28
2022-11-07T21:19:56.207Z,2.67
2022-11-07T21:25:27.602Z,2.42
2022-11-07T21:31:03.957Z,2.75
2022-11-07T21:36:35.443Z,2.35
2022-11-07T21:42:06.507Z,2.45
2022-11-07T21:47:43.227Z,2.55
2022-11-07T21:53:17.066Z,2.50
2022-11-07T21:58:50.498Z,2.50
2022-11-07T22:04:21.539Z,2.90
2022-11-07T22:09:52.764Z,2.58
2022-11-07T22:15:24.022Z,2.25
2022-11-07T22:20:58.754Z,2.47
2022-11-07T22:26:30.191Z,2.38
2022-11-07T22:32:01.622Z,2.38
2022-11-07T22:37:32.611Z,2.35
2022-11-07T22:43:04.074Z,2.55
2022-11-07T22:48:35.609Z,2.58
2022-11-07T22:54:08.850Z,2.20
2022-11-07T22:59:39.910Z,2.40
2022-11-07T23:05:11.265Z,2.20
2022-11-07T23:10:42.642Z,2.53
2022-11-07T23:16:28.537Z,2.78
2022-11-07T23:22:02.969Z,3.17
2022-11-07T23:27:34.295Z,2.72
2022-11-07T23:33:05.738Z,2.95
2022-11-07T23:38:36.804Z,3.13
2022-11-07T23:44:09.820Z,3.15
2022-11-07T23:49:59.313Z,2.88
2022-11-07T23:55:42.622Z,3.10
